Letzte Messung
Zeitpunkt Temperatur Luftfeuchte Luftdruck
2021-05-15 13:11:28 14.55 ℃ 96.08 % 1006.35 hPa

Zeitpunkt Temperatur Luftfeuchte Luftdruck
2021-05-15 13:11:28 14.55 ℃ 96.08 % 1006.35 hPa
2021-05-15 13:01:28 14.38 ℃ 95.93 % 1006.44 hPa
2021-05-15 12:51:28 13.83 ℃ 98.81 % 1006.57 hPa
2021-05-15 12:41:28 13.68 ℃ 98.4 % 1006.66 hPa
2021-05-15 12:31:28 13.15 ℃ 100 % 1006.7 hPa
2021-05-15 12:21:28 12.85 ℃ 100 % 1006.74 hPa
2021-05-15 12:11:28 12.77 ℃ 100 % 1006.79 hPa
2021-05-15 12:01:28 12.68 ℃ 100 % 1006.86 hPa
2021-05-15 11:51:28 12.66 ℃ 100 % 1006.9 hPa
2021-05-15 11:41:28 12.6 ℃ 100 % 1006.9 hPa
2021-05-15 11:31:28 12.45 ℃ 100 % 1006.88 hPa
2021-05-15 11:21:35 12.38 ℃ 100 % 1006.86 hPa
2021-05-15 11:11:28 12.23 ℃ 100 % 1006.91 hPa
2021-05-15 11:01:28 12.03 ℃ 100 % 1006.98 hPa
2021-05-15 10:51:28 11.54 ℃ 100 % 1007.04 hPa
2021-05-15 10:41:28 11.29 ℃ 100 % 1007.13 hPa
2021-05-15 10:31:28 11.03 ℃ 100 % 1007.16 hPa
2021-05-15 10:21:28 10.97 ℃ 100 % 1007.13 hPa
2021-05-15 10:11:28 10.92 ℃ 100 % 1007.09 hPa
2021-05-15 10:01:28 10.91 ℃ 100 % 1007.08 hPa
2021-05-15 09:51:28 10.86 ℃ 100 % 1007.06 hPa
2021-05-15 09:41:28 10.78 ℃ 100 % 1007.09 hPa
2021-05-15 09:31:28 10.64 ℃ 100 % 1007.13 hPa
2021-05-15 09:21:28 10.75 ℃ 100 % 1007.13 hPa
2021-05-15 09:11:28 10.57 ℃ 100 % 1007.1 hPa
2021-05-15 09:01:28 10.44 ℃ 100 % 1007.06 hPa
2021-05-15 08:51:28 10.4 ℃ 100 % 1007.03 hPa
2021-05-15 08:41:28 10.41 ℃ 100 % 1007.01 hPa
2021-05-15 08:31:28 10.33 ℃ 100 % 1007.01 hPa
2021-05-15 08:21:28 10.37 ℃ 100 % 1007 hPa
2021-05-15 08:11:28 10.47 ℃ 100 % 1006.97 hPa
2021-05-15 08:01:28 10.57 ℃ 100 % 1006.97 hPa
2021-05-15 07:51:28 10.84 ℃ 100 % 1006.91 hPa
2021-05-15 07:41:28 10.54 ℃ 100 % 1006.89 hPa
2021-05-15 07:31:28 10.43 ℃ 100 % 1006.85 hPa
2021-05-15 07:21:28 10.12 ℃ 100 % 1006.86 hPa
Durchschnitt 11.59 ℃ 99.7 % 1006.92 hPa

weatherino

Wetterdaten aus der Harmsstraße 54 in 24114 Kiel (4. OG, außen), die per BME280 und einem ESP-32 erhoben werden.

Unter https://wetter.janbpunkt.de/weather.xml steht eine entsprechende XML bereit, die das jüngste Messergebnis enthält.

Da der weatherino ab und zu ausfällt/gewartet wird, können Messpunkte fehlen.

Mehr zu dem Projekt findet man hier.

SSL, keine Cookies, keine IP-Adress-Speicherung, keine Verarbeitung von personenbezogenen Daten

Impressum

Extremwerte

Nachfolgend die Extremwerte seit Aufzeichnung.

BezeichnungWertZeitpunkt
Niedrigste Temperatur-6.4 ℃2021-02-13 07:00:53
Höchste Temperatur29.88 ℃2020-08-16 14:01:47
Niedrigster Luftdruck979.11 hPa2021-01-22 05:21:46
Höchster Luftdruck1074.18 hPa2020-12-24 17:16:12
Niedrigste Luftfeuchtigkeit22.3 %2020-04-13 15:26:13
Höchste Luftfeuchtigkeit100 %2020-06-11 06:39:27